createdAt,value
2018-07-06T00:02:18.007Z,19.50
2018-07-06T00:05:05.455Z,21.57
2018-07-06T00:07:52.635Z,20.07
2018-07-06T00:10:40.025Z,21.67
2018-07-06T00:13:27.187Z,20.73
2018-07-06T00:16:14.716Z,20.67
2018-07-06T00:19:02.127Z,21.77
2018-07-06T00:21:49.465Z,21.53
2018-07-06T00:24:36.788Z,21.77
2018-07-06T00:27:24.208Z,24.43
2018-07-06T00:30:11.660Z,23.33
2018-07-06T00:32:59.272Z,23.77
2018-07-06T00:35:46.628Z,26.00
2018-07-06T00:38:34.311Z,25.30
2018-07-06T00:41:21.989Z,24.10
2018-07-06T00:44:09.298Z,25.13
2018-07-06T00:46:56.734Z,29.13
2018-07-06T00:49:38.240Z,26.47
2018-07-06T00:52:25.516Z,27.03
2018-07-06T00:55:13.135Z,26.53
2018-07-06T00:58:00.619Z,26.43
2018-07-06T01:00:48.277Z,27.87
2018-07-06T01:03:35.984Z,28.53
2018-07-06T01:06:23.352Z,29.60
2018-07-06T01:09:10.764Z,25.27
2018-07-06T01:12:02.223Z,26.80
2018-07-06T01:14:49.763Z,25.93
2018-07-06T01:17:37.224Z,27.03
2018-07-06T01:20:25.000Z,27.40
2018-07-06T01:23:12.446Z,27.07
2018-07-06T01:25:59.730Z,21.17
2018-07-06T01:28:47.010Z,22.17
2018-07-06T01:31:34.481Z,24.80
2018-07-06T01:34:21.947Z,26.20
2018-07-06T01:37:09.335Z,24.67
2018-07-06T01:39:56.981Z,22.83
2018-07-06T01:42:44.745Z,24.73
2018-07-06T01:45:32.375Z,21.87
2018-07-06T01:48:19.867Z,21.80
2018-07-06T01:51:07.561Z,23.03
2018-07-06T01:53:54.946Z,20.93
2018-07-06T01:56:42.634Z,20.60
2018-07-06T01:59:29.859Z,19.60
2018-07-06T02:02:17.297Z,18.10
2018-07-06T02:05:04.599Z,19.30
2018-07-06T02:07:52.003Z,19.53
2018-07-06T02:10:39.664Z,19.57
2018-07-06T02:13:27.134Z,20.90
2018-07-06T02:16:14.626Z,18.90
2018-07-06T02:19:02.245Z,19.57
2018-07-06T02:21:49.785Z,18.67
2018-07-06T02:24:37.493Z,18.70
2018-07-06T02:27:24.844Z,17.13
2018-07-06T02:30:12.396Z,17.93
2018-07-06T02:32:59.852Z,17.90
2018-07-06T02:35:47.374Z,17.30
2018-07-06T02:38:34.955Z,16.97
2018-07-06T02:41:22.540Z,18.03
2018-07-06T02:44:09.953Z,17.87
2018-07-06T02:46:57.346Z,17.30
2018-07-06T02:49:44.778Z,17.77
2018-07-06T02:52:32.061Z,17.37
2018-07-06T02:55:19.747Z,17.07
2018-07-06T02:58:07.304Z,16.33
2018-07-06T03:00:54.637Z,16.27
2018-07-06T03:03:42.327Z,17.13
2018-07-06T03:06:29.819Z,17.47
2018-07-06T03:09:17.372Z,16.53
2018-07-06T03:12:04.799Z,16.93
2018-07-06T03:14:52.796Z,17.27
2018-07-06T03:17:40.253Z,19.13
2018-07-06T03:20:27.678Z,18.57
2018-07-06T03:23:15.170Z,17.47
2018-07-06T03:26:02.566Z,16.77
2018-07-06T03:28:50.144Z,16.40
2018-07-06T03:31:37.406Z,15.43
2018-07-06T03:34:24.800Z,16.73
2018-07-06T03:37:12.971Z,17.30
2018-07-06T03:40:00.567Z,17.43
2018-07-06T03:42:48.219Z,15.77
2018-07-06T03:45:35.819Z,16.47
2018-07-06T03:48:27.642Z,16.97
2018-07-06T03:51:15.103Z,17.00
2018-07-06T03:54:02.629Z,16.60
2018-07-06T03:56:50.365Z,16.70
2018-07-06T03:59:37.846Z,17.77
2018-07-06T04:02:25.328Z,18.47
2018-07-06T04:05:13.106Z,18.43
2018-07-06T04:08:00.839Z,17.50
2018-07-06T04:10:48.467Z,19.37
2018-07-06T04:13:35.751Z,18.27
2018-07-06T04:16:23.246Z,18.27
2018-07-06T04:19:11.520Z,18.43
2018-07-06T04:21:59.195Z,18.57
2018-07-06T04:24:46.453Z,17.33
2018-07-06T04:27:34.044Z,18.47
2018-07-06T04:30:21.415Z,20.80
2018-07-06T04:33:08.994Z,19.43
2018-07-06T04:35:56.431Z,19.13
2018-07-06T04:38:43.849Z,19.87
2018-07-06T04:41:31.311Z,19.27
2018-07-06T04:44:19.010Z,17.80
2018-07-06T04:47:06.468Z,19.17
2018-07-06T04:49:53.859Z,19.03
2018-07-06T04:52:41.298Z,18.40
2018-07-06T04:55:28.535Z,18.00
2018-07-06T04:58:16.814Z,18.77
2018-07-06T05:01:04.407Z,18.13
2018-07-06T05:03:52.009Z,18.97
2018-07-06T05:06:39.637Z,19.17
2018-07-06T05:09:27.225Z,20.80
2018-07-06T05:12:15.204Z,19.97
2018-07-06T05:15:02.669Z,20.03
2018-07-06T05:17:50.194Z,21.63
2018-07-06T05:20:37.793Z,23.47
2018-07-06T05:23:25.233Z,21.53
2018-07-06T05:26:12.878Z,21.87
2018-07-06T05:29:00.179Z,23.87
2018-07-06T05:31:47.643Z,24.17
2018-07-06T05:34:35.120Z,26.57
2018-07-06T05:37:22.653Z,26.13
2018-07-06T05:40:10.280Z,25.43
2018-07-06T05:42:57.899Z,29.37
2018-07-06T05:45:45.119Z,26.43
2018-07-06T05:48:32.617Z,31.90
2018-07-06T05:51:14.245Z,27.63
2018-07-06T05:54:01.671Z,27.97
2018-07-06T05:56:49.401Z,29.90
2018-07-06T05:59:36.931Z,28.67
2018-07-06T06:02:24.662Z,30.30
2018-07-06T06:05:12.396Z,33.73
2018-07-06T06:07:47.635Z,33.33
2018-07-06T06:10:18.438Z,32.10
2018-07-06T06:12:49.526Z,29.67
2018-07-06T06:15:20.488Z,33.77
2018-07-06T06:17:51.366Z,33.47
2018-07-06T06:20:22.326Z,35.53
2018-07-06T06:22:53.276Z,36.30
2018-07-06T06:25:24.305Z,33.43
2018-07-06T06:27:55.090Z,33.40
2018-07-06T06:30:26.383Z,34.77
2018-07-06T06:32:57.566Z,33.77
2018-07-06T06:35:28.534Z,37.10
2018-07-06T06:37:59.799Z,34.47
2018-07-06T06:40:30.638Z,33.63
2018-07-06T06:43:01.497Z,33.57
2018-07-06T06:45:32.265Z,33.00
2018-07-06T06:48:03.310Z,36.00
2018-07-06T06:50:34.515Z,37.83
2018-07-06T06:53:05.619Z,32.00
2018-07-06T06:55:36.387Z,36.20
2018-07-06T06:58:07.832Z,35.57
2018-07-06T07:00:39.091Z,31.23
2018-07-06T07:03:10.129Z,32.57
2018-07-06T07:05:40.999Z,29.40
2018-07-06T07:08:11.926Z,27.27
2018-07-06T07:10:42.794Z,25.53
2018-07-06T07:13:13.692Z,28.83
2018-07-06T07:15:44.981Z,26.47
2018-07-06T07:18:16.284Z,23.23
2018-07-06T07:20:47.151Z,21.00
2018-07-06T07:23:17.952Z,21.67
2018-07-06T07:25:48.827Z,23.67
2018-07-06T07:28:19.678Z,24.83
2018-07-06T07:30:50.606Z,23.67
2018-07-06T07:33:21.402Z,21.87
2018-07-06T07:35:52.336Z,23.27
2018-07-06T07:38:23.069Z,22.23
2018-07-06T07:40:53.943Z,21.43
2018-07-06T07:43:24.992Z,22.93
2018-07-06T07:45:55.279Z,23.03
2018-07-06T07:48:26.228Z,22.43
2018-07-06T07:51:08.206Z,22.27
2018-07-06T07:53:49.824Z,22.10
2018-07-06T07:56:20.931Z,22.73
2018-07-06T07:58:51.724Z,22.50
2018-07-06T08:01:22.633Z,23.20
2018-07-06T08:03:53.328Z,21.80
2018-07-06T08:06:24.230Z,21.90
2018-07-06T08:08:55.059Z,21.77
2018-07-06T08:11:25.936Z,22.10
2018-07-06T08:13:56.699Z,21.53
2018-07-06T08:16:27.488Z,21.47
2018-07-06T08:18:58.358Z,20.80
2018-07-06T08:21:29.144Z,18.53
2018-07-06T08:23:59.875Z,18.63
2018-07-06T08:26:30.639Z,18.30
2018-07-06T08:29:01.556Z,17.50
2018-07-06T08:31:32.279Z,17.70
2018-07-06T08:34:13.775Z,18.33
2018-07-06T08:37:55.066Z,17.33
2018-07-06T08:40:26.728Z,18.37
2018-07-06T08:42:59.389Z,17.97
2018-07-06T08:45:30.993Z,19.00
2018-07-06T08:48:02.009Z,17.07
2018-07-06T08:50:32.783Z,18.27
2018-07-06T08:53:03.583Z,16.67
2018-07-06T08:55:35.136Z,16.17
2018-07-06T08:58:06.186Z,17.70
2018-07-06T09:00:37.092Z,14.90
2018-07-06T09:03:07.885Z,15.27
2018-07-06T09:05:38.553Z,14.40
2018-07-06T09:08:09.263Z,15.27
2018-07-06T09:10:40.068Z,14.30
2018-07-06T09:13:10.981Z,14.10
2018-07-06T09:15:41.151Z,13.07
2018-07-06T09:18:11.782Z,13.00
2018-07-06T09:20:42.522Z,12.87
2018-07-06T09:23:13.495Z,13.07
2018-07-06T09:25:44.164Z,12.47
2018-07-06T09:28:15.033Z,12.87
2018-07-06T09:30:45.759Z,12.07
2018-07-06T09:33:16.582Z,12.20
2018-07-06T09:35:47.388Z,12.00
2018-07-06T09:38:18.203Z,12.20
2018-07-06T09:40:49.104Z,11.53
2018-07-06T09:43:19.825Z,11.83
2018-07-06T09:45:50.571Z,11.20
2018-07-06T09:48:21.358Z,17.93
2018-07-06T09:50:52.224Z,11.50
2018-07-06T09:53:22.958Z,10.50
2018-07-06T09:55:53.700Z,10.27
2018-07-06T09:58:24.461Z,10.03
2018-07-06T10:00:59.558Z,10.30
2018-07-06T10:03:30.411Z,10.17
2018-07-06T10:06:01.322Z,10.10
2018-07-06T10:08:32.216Z,10.03
2018-07-06T10:11:03.102Z,9.20
2018-07-06T10:13:33.932Z,9.77
2018-07-06T10:16:04.776Z,10.37
2018-07-06T10:18:35.639Z,10.03
2018-07-06T10:21:06.647Z,9.80
2018-07-06T10:23:37.710Z,10.70
2018-07-06T10:26:08.472Z,9.23
2018-07-06T10:30:55.941Z,9.95
2018-07-06T10:33:26.783Z,8.75
2018-07-06T10:35:57.598Z,8.83
2018-07-06T10:38:28.409Z,9.57
2018-07-06T10:40:59.274Z,8.95
2018-07-06T10:43:30.104Z,8.40
2018-07-06T10:46:00.918Z,8.20
2018-07-06T10:48:31.646Z,8.25
2018-07-06T10:51:02.414Z,8.10
2018-07-06T10:53:33.199Z,7.20
2018-07-06T10:56:04.000Z,6.92
2018-07-06T10:58:34.799Z,6.78
2018-07-06T11:01:05.579Z,6.42
2018-07-06T11:03:36.542Z,6.60
2018-07-06T11:06:07.300Z,6.17
2018-07-06T11:08:38.127Z,7.08
2018-07-06T11:11:08.913Z,7.03
2018-07-06T11:13:39.728Z,5.75
2018-07-06T11:16:10.692Z,6.40
2018-07-06T11:18:41.622Z,5.90
2018-07-06T11:21:12.436Z,5.77
2018-07-06T11:23:43.146Z,6.23
2018-07-06T11:26:13.912Z,5.53
2018-07-06T11:28:44.733Z,6.00
2018-07-06T11:31:15.808Z,6.00
2018-07-06T11:33:46.612Z,5.73
2018-07-06T11:36:17.488Z,7.08
2018-07-06T11:38:48.275Z,5.50
2018-07-06T11:41:19.132Z,5.45
2018-07-06T11:43:50.566Z,5.08
2018-07-06T11:46:21.433Z,5.20
2018-07-06T11:48:52.214Z,5.87
2018-07-06T11:51:23.099Z,5.40
2018-07-06T11:53:53.910Z,5.40
2018-07-06T11:56:24.688Z,7.53
2018-07-06T11:58:55.538Z,4.37
2018-07-06T12:01:26.512Z,4.23
2018-07-06T12:03:57.198Z,4.80
2018-07-06T12:06:27.876Z,4.00
2018-07-06T12:08:58.744Z,5.20
2018-07-06T12:11:29.605Z,4.27
2018-07-06T12:14:00.467Z,4.60
2018-07-06T12:16:31.468Z,4.40
2018-07-06T12:19:02.729Z,4.27
2018-07-06T12:21:33.661Z,4.00
2018-07-06T12:24:04.475Z,4.10
2018-07-06T12:26:35.189Z,3.50
2018-07-06T12:29:05.975Z,3.50
2018-07-06T12:31:36.849Z,3.23
2018-07-06T12:34:07.614Z,4.20
2018-07-06T12:36:38.433Z,5.20
2018-07-06T12:39:09.411Z,4.40
2018-07-06T12:41:40.270Z,3.20
2018-07-06T12:44:11.126Z,3.17
2018-07-06T12:46:41.856Z,3.03
2018-07-06T12:49:12.870Z,3.07
2018-07-06T12:51:43.636Z,3.50
2018-07-06T12:54:14.381Z,2.70
2018-07-06T12:56:45.095Z,3.20
2018-07-06T12:59:15.784Z,3.17
2018-07-06T13:01:46.589Z,3.00
2018-07-06T13:04:17.352Z,5.57
2018-07-06T13:06:48.241Z,3.43
2018-07-06T13:09:18.990Z,2.73
2018-07-06T13:11:49.729Z,2.83
2018-07-06T13:14:20.492Z,2.87
2018-07-06T13:16:51.327Z,2.57
2018-07-06T13:19:22.035Z,2.50
2018-07-06T13:21:52.816Z,3.93
2018-07-06T13:24:23.540Z,2.40
2018-07-06T13:26:54.248Z,2.70
2018-07-06T13:29:25.019Z,2.30
2018-07-06T13:31:55.876Z,2.30
2018-07-06T13:34:26.642Z,2.10
2018-07-06T13:36:57.491Z,2.00
2018-07-06T13:39:28.316Z,2.00
2018-07-06T13:41:58.945Z,2.47
2018-07-06T13:44:29.811Z,2.03
2018-07-06T13:47:00.648Z,2.80
2018-07-06T13:49:31.457Z,2.27
2018-07-06T13:52:02.502Z,2.15
2018-07-06T13:54:33.302Z,3.00
2018-07-06T13:57:04.069Z,1.90
2018-07-06T13:59:34.933Z,2.10
2018-07-06T14:02:05.620Z,1.95
2018-07-06T14:04:36.579Z,1.67
2018-07-06T14:07:07.526Z,2.70
2018-07-06T14:09:38.760Z,1.65
2018-07-06T14:12:09.916Z,1.80
2018-07-06T14:14:40.633Z,2.08
2018-07-06T14:17:11.516Z,1.70
2018-07-06T14:19:42.302Z,2.33
2018-07-06T14:22:13.151Z,1.70
2018-07-06T14:24:43.882Z,2.25
2018-07-06T14:27:14.660Z,2.15
2018-07-06T14:29:45.415Z,1.98
2018-07-06T14:32:16.248Z,1.50
2018-07-06T14:34:46.982Z,1.42
2018-07-06T14:37:17.186Z,1.70
2018-07-06T14:39:47.667Z,1.30
2018-07-06T14:42:18.520Z,2.10
2018-07-06T14:44:49.390Z,2.65
2018-07-06T14:47:20.405Z,1.67
2018-07-06T14:49:51.435Z,2.20
2018-07-06T14:52:22.412Z,1.52
2018-07-06T14:54:53.350Z,3.75
2018-07-06T14:57:24.157Z,1.87
2018-07-06T14:59:55.176Z,1.60
2018-07-06T15:02:25.917Z,1.45
2018-07-06T15:04:56.777Z,1.40
2018-07-06T15:07:27.529Z,2.20
2018-07-06T15:09:58.267Z,1.65
2018-07-06T15:12:29.038Z,1.55
2018-07-06T15:14:59.791Z,1.47
2018-07-06T15:17:30.513Z,1.65
2018-07-06T15:20:01.310Z,2.20
2018-07-06T15:22:32.104Z,1.60
2018-07-06T15:25:02.775Z,1.60
2018-07-06T15:27:33.484Z,1.50
2018-07-06T15:30:04.502Z,1.82
2018-07-06T15:32:35.287Z,1.40
2018-07-06T15:35:06.010Z,1.50
2018-07-06T15:37:36.911Z,1.72
2018-07-06T15:40:07.740Z,1.60
2018-07-06T15:42:38.584Z,2.30
2018-07-06T15:45:09.334Z,1.70
2018-07-06T15:47:40.112Z,1.62
2018-07-06T15:50:10.941Z,1.63
2018-07-06T15:52:41.844Z,1.70
2018-07-06T15:55:12.556Z,1.50
2018-07-06T15:57:43.266Z,2.17
2018-07-06T16:00:13.436Z,1.42
2018-07-06T16:02:44.015Z,1.70
2018-07-06T16:05:15.082Z,4.13
2018-07-06T16:07:45.860Z,2.85
2018-07-06T16:10:16.707Z,3.08
2018-07-06T16:12:47.444Z,1.70
2018-07-06T16:15:18.175Z,1.70
2018-07-06T16:17:48.996Z,2.60
2018-07-06T16:20:19.915Z,1.67
2018-07-06T16:23:08.283Z,1.60
2018-07-06T16:25:39.010Z,3.60
2018-07-06T16:28:09.803Z,1.70
2018-07-06T16:30:40.579Z,1.83
2018-07-06T16:33:11.423Z,2.17
2018-07-06T16:35:42.465Z,1.83
2018-07-06T16:38:13.247Z,1.80
2018-07-06T16:40:44.023Z,2.00
2018-07-06T16:43:14.734Z,2.40
2018-07-06T16:45:45.566Z,3.00
2018-07-06T16:48:16.393Z,3.23
2018-07-06T16:50:47.187Z,2.17
2018-07-06T16:53:17.967Z,2.45
2018-07-06T16:55:48.811Z,2.47
2018-07-06T16:58:19.579Z,2.92
2018-07-06T17:00:50.314Z,2.45
2018-07-06T17:03:21.252Z,2.47
2018-07-06T17:05:51.950Z,2.35
2018-07-06T17:08:22.606Z,2.40
2018-07-06T17:10:53.422Z,2.15
2018-07-06T17:13:24.280Z,2.50
2018-07-06T17:15:55.198Z,2.20
2018-07-06T17:18:26.040Z,3.20
2018-07-06T17:20:56.901Z,2.45
2018-07-06T17:23:27.703Z,2.83
2018-07-06T17:25:58.523Z,2.85
2018-07-06T17:28:29.270Z,3.35
2018-07-06T17:31:00.343Z,3.98
2018-07-06T17:33:31.184Z,2.55
2018-07-06T17:36:02.031Z,2.47
2018-07-06T17:38:32.822Z,3.72
2018-07-06T17:41:03.557Z,3.10
2018-07-06T17:43:34.288Z,2.70
2018-07-06T17:46:05.037Z,4.65
2018-07-06T17:48:35.756Z,2.52
2018-07-06T17:51:07.123Z,2.65
2018-07-06T17:53:38.121Z,3.08
2018-07-06T17:56:08.852Z,2.33
2018-07-06T17:58:39.622Z,3.83
2018-07-06T18:01:10.440Z,2.85
2018-07-06T18:03:41.211Z,2.37
2018-07-06T18:06:12.847Z,5.58
2018-07-06T18:08:43.694Z,2.30
2018-07-06T18:11:14.528Z,2.40
2018-07-06T18:13:46.584Z,3.05
2018-07-06T18:16:17.454Z,2.85
2018-07-06T18:18:48.335Z,3.00
2018-07-06T18:21:19.088Z,2.52
2018-07-06T18:23:50.080Z,2.95
2018-07-06T18:26:20.992Z,3.22
2018-07-06T18:28:51.750Z,2.75
2018-07-06T18:31:22.782Z,2.60
2018-07-06T18:33:53.689Z,2.90
2018-07-06T18:36:24.516Z,2.33
2018-07-06T18:38:55.263Z,3.62
2018-07-06T18:41:26.128Z,3.75
2018-07-06T18:43:56.923Z,3.15
2018-07-06T18:46:27.864Z,4.97
2018-07-06T18:48:58.800Z,3.30
2018-07-06T18:51:29.556Z,3.60
2018-07-06T18:54:00.379Z,3.52
2018-07-06T18:56:31.217Z,3.30
2018-07-06T18:59:01.895Z,4.62
2018-07-06T19:01:32.718Z,3.63
2018-07-06T19:04:04.016Z,4.03
2018-07-06T19:06:34.742Z,4.23
2018-07-06T19:09:06.016Z,5.23
2018-07-06T19:11:36.858Z,4.43
2018-07-06T19:14:07.726Z,4.23
2018-07-06T19:16:38.847Z,4.40
2018-07-06T19:19:09.675Z,4.50
2018-07-06T19:21:40.408Z,5.73
2018-07-06T19:24:11.786Z,4.20
2018-07-06T19:26:42.426Z,6.60
2018-07-06T19:29:13.275Z,4.40
2018-07-06T19:31:44.083Z,4.03
2018-07-06T19:34:14.896Z,4.23
2018-07-06T19:36:45.641Z,4.43
2018-07-06T19:39:16.461Z,4.60
2018-07-06T19:41:47.618Z,4.40
2018-07-06T19:44:18.527Z,4.63
2018-07-06T19:46:49.398Z,4.93
2018-07-06T19:49:20.259Z,5.00
2018-07-06T19:51:51.073Z,5.97
2018-07-06T19:54:21.807Z,4.53
2018-07-06T19:56:52.736Z,5.07
2018-07-06T19:59:23.471Z,4.43
2018-07-06T20:01:54.326Z,4.60
2018-07-06T20:04:24.540Z,3.93
2018-07-06T20:06:55.942Z,5.63
2018-07-06T20:09:26.712Z,4.87
2018-07-06T20:11:57.619Z,5.33
2018-07-06T20:14:28.397Z,4.30
2018-07-06T20:16:59.253Z,4.63
2018-07-06T20:19:30.126Z,4.40
2018-07-06T20:22:00.806Z,5.50
2018-07-06T20:24:31.582Z,5.30
2018-07-06T20:27:02.341Z,5.20
2018-07-06T20:29:33.197Z,4.93
2018-07-06T20:32:03.995Z,5.80
2018-07-06T20:34:34.838Z,6.33
2018-07-06T20:37:05.689Z,6.10
2018-07-06T20:39:36.404Z,6.23
2018-07-06T20:42:07.135Z,8.33
2018-07-06T20:44:37.900Z,5.93
2018-07-06T20:47:08.664Z,5.57
2018-07-06T20:49:39.467Z,5.60
2018-07-06T20:52:10.594Z,5.50
2018-07-06T20:54:41.450Z,5.30
2018-07-06T20:57:12.324Z,5.33
2018-07-06T20:59:43.192Z,5.20
2018-07-06T21:02:13.978Z,5.47
2018-07-06T21:04:45.034Z,7.27
2018-07-06T21:07:15.865Z,5.73
2018-07-06T21:09:46.555Z,5.80
2018-07-06T21:12:17.825Z,6.50
2018-07-06T21:14:48.540Z,8.63
2018-07-06T21:17:19.196Z,6.17
2018-07-06T21:19:49.847Z,5.87
2018-07-06T21:22:20.622Z,5.43
2018-07-06T21:24:51.371Z,8.13
2018-07-06T21:27:22.091Z,6.50
2018-07-06T21:29:52.791Z,5.90
2018-07-06T21:32:23.665Z,5.87
2018-07-06T21:34:54.561Z,7.47
2018-07-06T21:37:25.754Z,6.80
2018-07-06T21:39:56.995Z,7.60
2018-07-06T21:42:28.161Z,7.93
2018-07-06T21:44:59.183Z,7.57
2018-07-06T21:47:30.122Z,7.47
2018-07-06T21:50:01.088Z,7.03
2018-07-06T21:52:31.902Z,7.03
2018-07-06T21:55:02.801Z,6.40
2018-07-06T21:57:33.568Z,5.90
2018-07-06T22:00:04.503Z,8.53
2018-07-06T22:02:35.659Z,8.10
2018-07-06T22:05:06.570Z,7.37
2018-07-06T22:07:37.312Z,6.13
2018-07-06T22:10:08.095Z,8.87
2018-07-06T22:12:39.021Z,8.37
2018-07-06T22:15:09.877Z,6.73
2018-07-06T22:17:40.712Z,6.10
2018-07-06T22:20:11.514Z,6.53
2018-07-06T22:22:42.373Z,6.90
2018-07-06T22:25:13.117Z,6.80
2018-07-06T22:27:44.083Z,7.87
2018-07-06T22:30:15.079Z,7.30
2018-07-06T22:32:46.041Z,7.47
2018-07-06T22:35:17.261Z,6.87
2018-07-06T22:37:48.032Z,6.60
2018-07-06T22:40:18.711Z,6.43
2018-07-06T22:42:49.499Z,7.47
2018-07-06T22:45:20.581Z,8.50
2018-07-06T22:47:51.519Z,6.80
2018-07-06T22:50:22.279Z,8.03
2018-07-06T22:52:53.580Z,7.10
2018-07-06T22:55:24.550Z,7.03
2018-07-06T22:57:55.377Z,8.47
2018-07-06T23:00:26.163Z,6.30
2018-07-06T23:03:02.161Z,7.03
2018-07-06T23:05:32.918Z,7.03
2018-07-06T23:08:04.204Z,7.00
2018-07-06T23:10:35.032Z,7.87
2018-07-06T23:13:06.092Z,6.73
2018-07-06T23:15:37.123Z,6.80
2018-07-06T23:18:08.434Z,6.60
2018-07-06T23:20:39.156Z,7.23
2018-07-06T23:23:13.013Z,8.87
2018-07-06T23:25:45.793Z,7.33
2018-07-06T23:28:16.805Z,7.17
2018-07-06T23:30:47.862Z,7.37
2018-07-06T23:33:18.975Z,7.20
2018-07-06T23:35:49.810Z,7.07
2018-07-06T23:38:20.615Z,7.23
2018-07-06T23:40:51.890Z,7.17
2018-07-06T23:43:22.816Z,7.90
2018-07-06T23:45:53.698Z,7.40
2018-07-06T23:48:24.543Z,7.77
2018-07-06T23:50:55.449Z,7.80
2018-07-06T23:53:26.365Z,8.57
2018-07-06T23:55:57.352Z,7.20
2018-07-06T23:58:28.458Z,7.00
